sensor_id;sensor_type;location;lat;lon;timestamp;P1;durP1;ratioP1;P2;durP2;ratioP2
22080;SDS011;11207;59.512;18.050;2022-10-16T00:01:08;29.87;;;16.33;;
22080;SDS011;11207;59.512;18.050;2022-10-16T00:03:39;25.97;;;14.83;;
22080;SDS011;11207;59.512;18.050;2022-10-16T00:06:06;24.73;;;15.87;;
22080;SDS011;11207;59.512;18.050;2022-10-16T00:08:32;24.83;;;15.20;;
22080;SDS011;11207;59.512;18.050;2022-10-16T00:10:59;22.17;;;14.40;;
22080;SDS011;11207;59.512;18.050;2022-10-16T00:13:37;26.20;;;15.30;;
22080;SDS011;11207;59.512;18.050;2022-10-16T00:16:04;25.40;;;16.07;;
22080;SDS011;11207;59.512;18.050;2022-10-16T00:18:30;27.87;;;15.83;;
22080;SDS011;11207;59.512;18.050;2022-10-16T00:21:00;22.37;;;14.43;;
22080;SDS011;11207;59.512;18.050;2022-10-16T00:23:32;20.57;;;13.23;;
22080;SDS011;11207;59.512;18.050;2022-10-16T00:25:59;22.30;;;14.00;;
22080;SDS011;11207;59.512;18.050;2022-10-16T00:28:27;24.87;;;14.63;;
22080;SDS011;11207;59.512;18.050;2022-10-16T00:30:53;18.63;;;12.23;;
22080;SDS011;11207;59.512;18.050;2022-10-16T00:33:19;19.67;;;12.83;;
22080;SDS011;11207;59.512;18.050;2022-10-16T00:35:44;19.70;;;11.93;;
22080;SDS011;11207;59.512;18.050;2022-10-16T00:38:10;18.93;;;12.07;;
22080;SDS011;11207;59.512;18.050;2022-10-16T00:40:36;17.73;;;11.13;;
22080;SDS011;11207;59.512;18.050;2022-10-16T00:43:02;14.07;;;10.07;;
22080;SDS011;11207;59.512;18.050;2022-10-16T00:45:27;12.60;;;9.60;;
22080;SDS011;11207;59.512;18.050;2022-10-16T00:47:53;16.60;;;10.47;;
22080;SDS011;11207;59.512;18.050;2022-10-16T00:52:57;14.37;;;10.40;;
22080;SDS011;11207;59.512;18.050;2022-10-16T00:55:25;15.53;;;10.50;;
22080;SDS011;11207;59.512;18.050;2022-10-16T00:57:53;14.57;;;9.53;;
22080;SDS011;11207;59.512;18.050;2022-10-16T01:00:23;14.43;;;9.70;;
22080;SDS011;11207;59.512;18.050;2022-10-16T01:02:55;14.37;;;10.77;;
22080;SDS011;11207;59.512;18.050;2022-10-16T01:05:23;15.87;;;10.97;;
22080;SDS011;11207;59.512;18.050;2022-10-16T01:10:38;13.40;;;9.83;;
22080;SDS011;11207;59.512;18.050;2022-10-16T01:13:12;12.77;;;9.23;;
22080;SDS011;11207;59.512;18.050;2022-10-16T01:16:06;14.37;;;9.03;;
22080;SDS011;11207;59.512;18.050;2022-10-16T01:18:39;13.50;;;9.63;;
22080;SDS011;11207;59.512;18.050;2022-10-16T01:21:12;14.30;;;9.97;;
22080;SDS011;11207;59.512;18.050;2022-10-16T01:35:32;13.97;;;9.90;;
22080;SDS011;11207;59.512;18.050;2022-10-16T01:40:52;13.17;;;9.80;;
22080;SDS011;11207;59.512;18.050;2022-10-16T01:43:31;12.90;;;9.03;;
22080;SDS011;11207;59.512;18.050;2022-10-16T01:46:02;15.90;;;10.57;;
22080;SDS011;11207;59.512;18.050;2022-10-16T01:48:31;17.43;;;10.60;;
22080;SDS011;11207;59.512;18.050;2022-10-16T01:51:12;15.17;;;11.10;;
22080;SDS011;11207;59.512;18.050;2022-10-16T01:53:41;16.20;;;10.63;;
22080;SDS011;11207;59.512;18.050;2022-10-16T01:56:11;16.80;;;10.73;;
22080;SDS011;11207;59.512;18.050;2022-10-16T01:58:44;19.33;;;12.43;;
22080;SDS011;11207;59.512;18.050;2022-10-16T02:01:12;18.57;;;11.50;;
22080;SDS011;11207;59.512;18.050;2022-10-16T02:03:42;14.87;;;10.47;;
22080;SDS011;11207;59.512;18.050;2022-10-16T02:06:09;15.97;;;10.37;;
22080;SDS011;11207;59.512;18.050;2022-10-16T02:08:36;15.63;;;11.27;;
22080;SDS011;11207;59.512;18.050;2022-10-16T02:11:05;18.07;;;11.40;;
22080;SDS011;11207;59.512;18.050;2022-10-16T02:13:45;13.13;;;10.47;;
22080;SDS011;11207;59.512;18.050;2022-10-16T02:16:15;16.93;;;10.40;;
22080;SDS011;11207;59.512;18.050;2022-10-16T02:18:41;16.77;;;11.40;;
22080;SDS011;11207;59.512;18.050;2022-10-16T02:21:25;15.70;;;10.70;;
22080;SDS011;11207;59.512;18.050;2022-10-16T02:23:55;15.33;;;10.70;;
22080;SDS011;11207;59.512;18.050;2022-10-16T02:29:14;15.67;;;10.37;;
22080;SDS011;11207;59.512;18.050;2022-10-16T02:31:43;13.43;;;9.50;;
22080;SDS011;11207;59.512;18.050;2022-10-16T02:34:13;11.47;;;9.37;;
22080;SDS011;11207;59.512;18.050;2022-10-16T02:36:41;15.63;;;10.07;;
22080;SDS011;11207;59.512;18.050;2022-10-16T02:39:08;13.03;;;9.63;;
22080;SDS011;11207;59.512;18.050;2022-10-16T02:41:35;13.33;;;8.77;;
22080;SDS011;11207;59.512;18.050;2022-10-16T02:44:01;13.17;;;10.00;;
22080;SDS011;11207;59.512;18.050;2022-10-16T02:46:27;15.57;;;9.07;;
22080;SDS011;11207;59.512;18.050;2022-10-16T02:48:52;13.23;;;10.23;;
22080;SDS011;11207;59.512;18.050;2022-10-16T02:51:18;14.20;;;9.57;;
22080;SDS011;11207;59.512;18.050;2022-10-16T02:53:43;14.83;;;9.47;;
22080;SDS011;11207;59.512;18.050;2022-10-16T02:56:09;13.57;;;9.60;;
22080;SDS011;11207;59.512;18.050;2022-10-16T02:58:35;12.60;;;8.80;;
22080;SDS011;11207;59.512;18.050;2022-10-16T03:01:00;12.07;;;8.30;;
22080;SDS011;11207;59.512;18.050;2022-10-16T03:03:26;14.57;;;9.40;;
22080;SDS011;11207;59.512;18.050;2022-10-16T03:05:52;13.90;;;9.10;;
22080;SDS011;11207;59.512;18.050;2022-10-16T03:08:18;14.40;;;9.10;;
22080;SDS011;11207;59.512;18.050;2022-10-16T03:10:48;10.70;;;8.47;;
22080;SDS011;11207;59.512;18.050;2022-10-16T03:13:14;13.47;;;9.23;;
22080;SDS011;11207;59.512;18.050;2022-10-16T03:15:39;12.07;;;8.40;;
22080;SDS011;11207;59.512;18.050;2022-10-16T03:18:05;11.00;;;8.73;;
22080;SDS011;11207;59.512;18.050;2022-10-16T03:20:31;12.70;;;8.70;;
22080;SDS011;11207;59.512;18.050;2022-10-16T03:22:56;13.37;;;8.47;;
22080;SDS011;11207;59.512;18.050;2022-10-16T03:25:22;11.97;;;9.30;;
22080;SDS011;11207;59.512;18.050;2022-10-16T03:27:47;11.30;;;8.60;;
22080;SDS011;11207;59.512;18.050;2022-10-16T03:30:13;13.40;;;9.23;;
22080;SDS011;11207;59.512;18.050;2022-10-16T03:32:39;15.97;;;10.07;;
22080;SDS011;11207;59.512;18.050;2022-10-16T03:35:04;16.50;;;9.80;;
22080;SDS011;11207;59.512;18.050;2022-10-16T03:37:30;12.63;;;8.87;;
22080;SDS011;11207;59.512;18.050;2022-10-16T03:39:56;15.50;;;10.43;;
22080;SDS011;11207;59.512;18.050;2022-10-16T03:42:21;15.03;;;9.50;;
22080;SDS011;11207;59.512;18.050;2022-10-16T03:44:47;11.37;;;8.63;;
22080;SDS011;11207;59.512;18.050;2022-10-16T03:47:13;15.77;;;9.30;;
22080;SDS011;11207;59.512;18.050;2022-10-16T03:49:38;12.10;;;8.60;;
22080;SDS011;11207;59.512;18.050;2022-10-16T03:52:04;14.30;;;8.60;;
22080;SDS011;11207;59.512;18.050;2022-10-16T03:54:30;14.87;;;9.73;;
22080;SDS011;11207;59.512;18.050;2022-10-16T03:56:55;11.67;;;9.27;;
22080;SDS011;11207;59.512;18.050;2022-10-16T03:59:21;10.37;;;8.30;;
22080;SDS011;11207;59.512;18.050;2022-10-16T04:01:46;13.57;;;8.83;;
22080;SDS011;11207;59.512;18.050;2022-10-16T04:04:12;16.03;;;9.20;;
22080;SDS011;11207;59.512;18.050;2022-10-16T04:06:38;17.83;;;9.37;;
22080;SDS011;11207;59.512;18.050;2022-10-16T04:09:03;10.47;;;8.13;;
22080;SDS011;11207;59.512;18.050;2022-10-16T04:11:29;16.73;;;8.93;;
22080;SDS011;11207;59.512;18.050;2022-10-16T04:13:55;13.77;;;8.57;;
22080;SDS011;11207;59.512;18.050;2022-10-16T04:16:21;12.33;;;8.20;;
22080;SDS011;11207;59.512;18.050;2022-10-16T04:18:46;14.13;;;8.43;;
22080;SDS011;11207;59.512;18.050;2022-10-16T04:21:12;11.57;;;8.80;;
22080;SDS011;11207;59.512;18.050;2022-10-16T04:23:38;10.83;;;8.07;;
22080;SDS011;11207;59.512;18.050;2022-10-16T04:26:04;9.93;;;7.73;;
22080;SDS011;11207;59.512;18.050;2022-10-16T04:28:29;11.57;;;7.83;;
22080;SDS011;11207;59.512;18.050;2022-10-16T04:30:55;12.37;;;8.10;;
22080;SDS011;11207;59.512;18.050;2022-10-16T04:33:21;9.37;;;7.47;;
22080;SDS011;11207;59.512;18.050;2022-10-16T04:35:47;16.67;;;8.40;;
22080;SDS011;11207;59.512;18.050;2022-10-16T04:38:12;9.23;;;7.33;;
22080;SDS011;11207;59.512;18.050;2022-10-16T04:40:38;9.00;;;7.20;;
22080;SDS011;11207;59.512;18.050;2022-10-16T04:43:04;11.23;;;8.07;;
22080;SDS011;11207;59.512;18.050;2022-10-16T04:45:30;9.57;;;7.13;;
22080;SDS011;11207;59.512;18.050;2022-10-16T04:47:59;8.47;;;6.83;;
22080;SDS011;11207;59.512;18.050;2022-10-16T04:50:25;10.17;;;7.97;;
22080;SDS011;11207;59.512;18.050;2022-10-16T04:52:51;10.07;;;7.23;;
22080;SDS011;11207;59.512;18.050;2022-10-16T04:55:16;9.73;;;6.67;;
22080;SDS011;11207;59.512;18.050;2022-10-16T04:57:42;10.43;;;7.13;;
22080;SDS011;11207;59.512;18.050;2022-10-16T05:00:08;8.20;;;6.63;;
22080;SDS011;11207;59.512;18.050;2022-10-16T05:02:34;8.37;;;6.90;;
22080;SDS011;11207;59.512;18.050;2022-10-16T05:04:59;10.73;;;7.40;;
22080;SDS011;11207;59.512;18.050;2022-10-16T05:07:25;9.73;;;6.27;;
22080;SDS011;11207;59.512;18.050;2022-10-16T05:09:50;11.97;;;7.03;;
22080;SDS011;11207;59.512;18.050;2022-10-16T05:12:16;8.67;;;6.40;;
22080;SDS011;11207;59.512;18.050;2022-10-16T05:14:42;12.70;;;7.40;;
22080;SDS011;11207;59.512;18.050;2022-10-16T05:17:07;11.70;;;6.57;;
22080;SDS011;11207;59.512;18.050;2022-10-16T05:19:33;6.63;;;5.63;;
22080;SDS011;11207;59.512;18.050;2022-10-16T05:21:58;8.33;;;6.40;;
22080;SDS011;11207;59.512;18.050;2022-10-16T05:24:24;7.97;;;6.90;;
22080;SDS011;11207;59.512;18.050;2022-10-16T05:26:50;8.50;;;6.30;;
22080;SDS011;11207;59.512;18.050;2022-10-16T05:29:16;7.77;;;6.23;;
22080;SDS011;11207;59.512;18.050;2022-10-16T05:31:42;6.97;;;6.27;;
22080;SDS011;11207;59.512;18.050;2022-10-16T05:34:07;8.33;;;6.07;;
22080;SDS011;11207;59.512;18.050;2022-10-16T05:36:33;7.00;;;5.90;;
22080;SDS011;11207;59.512;18.050;2022-10-16T05:38:58;9.70;;;6.20;;
22080;SDS011;11207;59.512;18.050;2022-10-16T05:41:24;7.43;;;6.00;;
22080;SDS011;11207;59.512;18.050;2022-10-16T05:43:51;7.53;;;5.93;;
22080;SDS011;11207;59.512;18.050;2022-10-16T05:46:17;8.90;;;5.90;;
22080;SDS011;11207;59.512;18.050;2022-10-16T05:48:43;7.23;;;5.70;;
22080;SDS011;11207;59.512;18.050;2022-10-16T05:51:10;6.93;;;5.93;;
22080;SDS011;11207;59.512;18.050;2022-10-16T05:53:37;6.90;;;6.20;;
22080;SDS011;11207;59.512;18.050;2022-10-16T05:56:04;6.50;;;5.20;;
22080;SDS011;11207;59.512;18.050;2022-10-16T05:58:32;9.37;;;6.50;;
22080;SDS011;11207;59.512;18.050;2022-10-16T06:01:06;6.53;;;5.80;;
22080;SDS011;11207;59.512;18.050;2022-10-16T06:03:36;9.60;;;6.70;;
22080;SDS011;11207;59.512;18.050;2022-10-16T06:06:13;8.20;;;6.63;;
22080;SDS011;11207;59.512;18.050;2022-10-16T06:08:41;9.53;;;6.43;;
22080;SDS011;11207;59.512;18.050;2022-10-16T06:11:08;8.93;;;6.47;;
22080;SDS011;11207;59.512;18.050;2022-10-16T06:13:39;10.30;;;7.60;;
22080;SDS011;11207;59.512;18.050;2022-10-16T06:16:07;10.03;;;6.73;;
22080;SDS011;11207;59.512;18.050;2022-10-16T06:18:35;9.67;;;7.10;;
22080;SDS011;11207;59.512;18.050;2022-10-16T06:21:06;11.63;;;6.43;;
22080;SDS011;11207;59.512;18.050;2022-10-16T06:23:51;10.90;;;6.80;;
22080;SDS011;11207;59.512;18.050;2022-10-16T06:26:19;10.53;;;7.50;;
22080;SDS011;11207;59.512;18.050;2022-10-16T06:28:47;10.70;;;7.20;;
22080;SDS011;11207;59.512;18.050;2022-10-16T06:31:13;9.93;;;7.13;;
22080;SDS011;11207;59.512;18.050;2022-10-16T06:33:39;12.07;;;7.47;;
22080;SDS011;11207;59.512;18.050;2022-10-16T06:36:09;11.07;;;7.30;;
22080;SDS011;11207;59.512;18.050;2022-10-16T06:38:37;9.93;;;7.47;;
22080;SDS011;11207;59.512;18.050;2022-10-16T06:41:04;10.40;;;7.53;;
22080;SDS011;11207;59.512;18.050;2022-10-16T06:43:30;8.87;;;7.10;;
22080;SDS011;11207;59.512;18.050;2022-10-16T06:45:57;11.93;;;7.07;;
22080;SDS011;11207;59.512;18.050;2022-10-16T06:48:24;12.27;;;7.40;;
22080;SDS011;11207;59.512;18.050;2022-10-16T06:50:57;10.53;;;7.70;;
22080;SDS011;11207;59.512;18.050;2022-10-16T06:53:30;8.27;;;6.83;;
22080;SDS011;11207;59.512;18.050;2022-10-16T06:55:57;12.53;;;7.27;;
22080;SDS011;11207;59.512;18.050;2022-10-16T06:58:31;9.33;;;6.73;;
22080;SDS011;11207;59.512;18.050;2022-10-16T07:00:56;10.80;;;7.90;;
22080;SDS011;11207;59.512;18.050;2022-10-16T07:03:24;13.13;;;8.90;;
22080;SDS011;11207;59.512;18.050;2022-10-16T07:05:50;12.43;;;8.20;;
22080;SDS011;11207;59.512;18.050;2022-10-16T07:08:16;14.50;;;8.80;;
22080;SDS011;11207;59.512;18.050;2022-10-16T07:10:41;13.80;;;8.37;;
22080;SDS011;11207;59.512;18.050;2022-10-16T07:13:07;43.00;;;26.93;;
22080;SDS011;11207;59.512;18.050;2022-10-16T07:15:33;26.63;;;17.17;;
22080;SDS011;11207;59.512;18.050;2022-10-16T07:18:02;14.70;;;10.80;;
22080;SDS011;11207;59.512;18.050;2022-10-16T07:20:27;23.93;;;12.83;;
22080;SDS011;11207;59.512;18.050;2022-10-16T07:22:53;18.30;;;12.53;;
22080;SDS011;11207;59.512;18.050;2022-10-16T07:25:18;21.33;;;12.93;;
22080;SDS011;11207;59.512;18.050;2022-10-16T07:27:44;16.30;;;10.70;;
22080;SDS011;11207;59.512;18.050;2022-10-16T07:30:10;27.87;;;15.53;;
22080;SDS011;11207;59.512;18.050;2022-10-16T07:32:36;35.83;;;19.10;;
22080;SDS011;11207;59.512;18.050;2022-10-16T07:35:02;51.00;;;25.33;;
22080;SDS011;11207;59.512;18.050;2022-10-16T07:37:27;71.70;;;34.67;;
22080;SDS011;11207;59.512;18.050;2022-10-16T07:39:53;36.10;;;19.63;;
22080;SDS011;11207;59.512;18.050;2022-10-16T07:42:19;38.10;;;21.57;;
22080;SDS011;11207;59.512;18.050;2022-10-16T07:44:48;30.53;;;16.67;;
22080;SDS011;11207;59.512;18.050;2022-10-16T07:47:14;44.03;;;25.20;;
22080;SDS011;11207;59.512;18.050;2022-10-16T07:49:39;24.30;;;14.60;;
22080;SDS011;11207;59.512;18.050;2022-10-16T07:52:05;23.13;;;16.20;;
22080;SDS011;11207;59.512;18.050;2022-10-16T07:54:31;15.13;;;11.23;;
22080;SDS011;11207;59.512;18.050;2022-10-16T07:56:56;16.90;;;10.63;;
22080;SDS011;11207;59.512;18.050;2022-10-16T07:59:22;10.97;;;8.83;;
22080;SDS011;11207;59.512;18.050;2022-10-16T08:01:48;12.80;;;8.00;;
22080;SDS011;11207;59.512;18.050;2022-10-16T08:04:14;9.90;;;7.07;;
22080;SDS011;11207;59.512;18.050;2022-10-16T08:06:40;13.17;;;7.10;;
22080;SDS011;11207;59.512;18.050;2022-10-16T08:09:07;9.40;;;6.77;;
22080;SDS011;11207;59.512;18.050;2022-10-16T08:11:33;9.57;;;6.97;;
22080;SDS011;11207;59.512;18.050;2022-10-16T08:13:59;7.37;;;6.20;;
22080;SDS011;11207;59.512;18.050;2022-10-16T08:16:25;9.40;;;6.47;;
22080;SDS011;11207;59.512;18.050;2022-10-16T08:18:51;8.30;;;5.13;;
22080;SDS011;11207;59.512;18.050;2022-10-16T08:21:17;8.63;;;5.70;;
22080;SDS011;11207;59.512;18.050;2022-10-16T08:23:44;9.37;;;6.20;;
22080;SDS011;11207;59.512;18.050;2022-10-16T08:26:10;6.73;;;5.53;;
22080;SDS011;11207;59.512;18.050;2022-10-16T08:28:36;6.83;;;5.03;;
22080;SDS011;11207;59.512;18.050;2022-10-16T08:31:09;5.30;;;4.10;;
22080;SDS011;11207;59.512;18.050;2022-10-16T08:33:37;5.70;;;4.83;;
22080;SDS011;11207;59.512;18.050;2022-10-16T08:36:04;7.33;;;4.77;;
22080;SDS011;11207;59.512;18.050;2022-10-16T08:38:31;5.27;;;4.50;;
22080;SDS011;11207;59.512;18.050;2022-10-16T08:44:05;6.00;;;4.90;;
22080;SDS011;11207;59.512;18.050;2022-10-16T08:46:45;5.50;;;4.43;;
22080;SDS011;11207;59.512;18.050;2022-10-16T08:49:38;6.80;;;4.60;;
22080;SDS011;11207;59.512;18.050;2022-10-16T08:52:11;6.93;;;4.37;;
22080;SDS011;11207;59.512;18.050;2022-10-16T08:54:41;4.33;;;3.93;;
22080;SDS011;11207;59.512;18.050;2022-10-16T08:57:14;5.67;;;4.30;;
22080;SDS011;11207;59.512;18.050;2022-10-16T08:59:43;6.90;;;4.77;;
22080;SDS011;11207;59.512;18.050;2022-10-16T09:05:00;6.23;;;4.60;;
22080;SDS011;11207;59.512;18.050;2022-10-16T09:07:59;5.17;;;4.40;;
22080;SDS011;11207;59.512;18.050;2022-10-16T09:10:56;5.67;;;4.00;;
22080;SDS011;11207;59.512;18.050;2022-10-16T09:16:19;6.33;;;4.03;;
22080;SDS011;11207;59.512;18.050;2022-10-16T09:21:47;4.63;;;3.73;;
22080;SDS011;11207;59.512;18.050;2022-10-16T09:24:20;9.37;;;3.77;;
22080;SDS011;11207;59.512;18.050;2022-10-16T09:26:49;7.73;;;3.93;;
22080;SDS011;11207;59.512;18.050;2022-10-16T09:29:18;4.07;;;3.40;;
22080;SDS011;11207;59.512;18.050;2022-10-16T09:31:46;5.23;;;3.53;;
22080;SDS011;11207;59.512;18.050;2022-10-16T09:34:32;7.87;;;3.70;;
22080;SDS011;11207;59.512;18.050;2022-10-16T09:37:01;5.20;;;3.47;;
22080;SDS011;11207;59.512;18.050;2022-10-16T09:39:30;4.43;;;3.17;;
22080;SDS011;11207;59.512;18.050;2022-10-16T09:42:10;5.80;;;3.10;;
22080;SDS011;11207;59.512;18.050;2022-10-16T09:44:39;4.37;;;2.97;;
22080;SDS011;11207;59.512;18.050;2022-10-16T09:47:12;6.97;;;3.33;;
22080;SDS011;11207;59.512;18.050;2022-10-16T09:52:19;4.17;;;2.97;;
22080;SDS011;11207;59.512;18.050;2022-10-16T09:54:49;4.30;;;2.97;;
22080;SDS011;11207;59.512;18.050;2022-10-16T09:57:19;6.50;;;3.20;;
22080;SDS011;11207;59.512;18.050;2022-10-16T09:59:47;5.83;;;3.27;;
22080;SDS011;11207;59.512;18.050;2022-10-16T10:02:13;4.80;;;2.87;;
22080;SDS011;11207;59.512;18.050;2022-10-16T10:04:42;5.23;;;3.13;;
22080;SDS011;11207;59.512;18.050;2022-10-16T10:07:23;4.93;;;3.10;;
22080;SDS011;11207;59.512;18.050;2022-10-16T10:09:57;5.53;;;3.37;;
22080;SDS011;11207;59.512;18.050;2022-10-16T10:12:29;4.23;;;3.00;;
22080;SDS011;11207;59.512;18.050;2022-10-16T10:15:04;4.53;;;2.83;;
22080;SDS011;11207;59.512;18.050;2022-10-16T10:17:31;7.53;;;3.33;;
22080;SDS011;11207;59.512;18.050;2022-10-16T10:19:58;10.00;;;3.33;;
22080;SDS011;11207;59.512;18.050;2022-10-16T10:33:13;5.67;;;3.00;;
22080;SDS011;11207;59.512;18.050;2022-10-16T10:41:10;5.13;;;2.80;;
22080;SDS011;11207;59.512;18.050;2022-10-16T10:46:42;7.20;;;2.90;;
22080;SDS011;11207;59.512;18.050;2022-10-16T10:57:00;6.53;;;2.70;;
22080;SDS011;11207;59.512;18.050;2022-10-16T10:59:53;4.87;;;2.67;;
22080;SDS011;11207;59.512;18.050;2022-10-16T11:08:16;7.10;;;3.17;;
22080;SDS011;11207;59.512;18.050;2022-10-16T11:10:53;4.17;;;2.90;;
22080;SDS011;11207;59.512;18.050;2022-10-16T11:15:57;5.43;;;2.60;;
22080;SDS011;11207;59.512;18.050;2022-10-16T11:18:33;5.97;;;2.67;;
22080;SDS011;11207;59.512;18.050;2022-10-16T11:21:24;10.57;;;2.40;;
22080;SDS011;11207;59.512;18.050;2022-10-16T11:23:58;9.63;;;2.90;;
22080;SDS011;11207;59.512;18.050;2022-10-16T11:26:30;4.97;;;3.03;;
22080;SDS011;11207;59.512;18.050;2022-10-16T11:29:00;5.07;;;2.57;;
22080;SDS011;11207;59.512;18.050;2022-10-16T11:31:29;4.03;;;2.53;;
22080;SDS011;11207;59.512;18.050;2022-10-16T11:34:04;4.07;;;2.33;;
22080;SDS011;11207;59.512;18.050;2022-10-16T11:37:02;8.20;;;3.00;;
22080;SDS011;11207;59.512;18.050;2022-10-16T11:39:36;3.80;;;2.50;;
22080;SDS011;11207;59.512;18.050;2022-10-16T11:42:07;5.17;;;2.60;;
22080;SDS011;11207;59.512;18.050;2022-10-16T11:47:34;6.30;;;2.93;;
22080;SDS011;11207;59.512;18.050;2022-10-16T11:55:47;4.97;;;2.57;;
22080;SDS011;11207;59.512;18.050;2022-10-16T12:04:34;5.13;;;2.50;;
22080;SDS011;11207;59.512;18.050;2022-10-16T12:07:11;5.53;;;2.57;;
22080;SDS011;11207;59.512;18.050;2022-10-16T12:09:42;3.70;;;2.30;;
22080;SDS011;11207;59.512;18.050;2022-10-16T12:12:28;7.43;;;2.73;;
22080;SDS011;11207;59.512;18.050;2022-10-16T12:17:51;8.70;;;3.17;;
22080;SDS011;11207;59.512;18.050;2022-10-16T12:22:52;6.30;;;2.57;;
22080;SDS011;11207;59.512;18.050;2022-10-16T12:27:59;7.07;;;2.83;;
22080;SDS011;11207;59.512;18.050;2022-10-16T12:30:27;5.67;;;2.67;;
22080;SDS011;11207;59.512;18.050;2022-10-16T12:32:56;5.50;;;2.40;;
22080;SDS011;11207;59.512;18.050;2022-10-16T12:35:30;8.60;;;2.67;;
22080;SDS011;11207;59.512;18.050;2022-10-16T12:38:06;4.53;;;2.30;;
22080;SDS011;11207;59.512;18.050;2022-10-16T12:40:37;3.03;;;2.20;;
22080;SDS011;11207;59.512;18.050;2022-10-16T12:43:23;6.73;;;2.50;;
22080;SDS011;11207;59.512;18.050;2022-10-16T12:45:58;6.40;;;2.47;;
22080;SDS011;11207;59.512;18.050;2022-10-16T12:48:29;5.90;;;2.57;;
22080;SDS011;11207;59.512;18.050;2022-10-16T12:50:56;4.03;;;2.30;;
22080;SDS011;11207;59.512;18.050;2022-10-16T12:53:23;4.70;;;2.30;;
22080;SDS011;11207;59.512;18.050;2022-10-16T12:55:52;5.03;;;2.63;;
22080;SDS011;11207;59.512;18.050;2022-10-16T12:58:51;6.93;;;2.60;;
22080;SDS011;11207;59.512;18.050;2022-10-16T13:07:14;6.00;;;2.83;;
22080;SDS011;11207;59.512;18.050;2022-10-16T13:16:57;4.77;;;2.97;;
22080;SDS011;11207;59.512;18.050;2022-10-16T13:30:21;5.60;;;3.00;;
22080;SDS011;11207;59.512;18.050;2022-10-16T13:32:50;6.33;;;3.00;;
22080;SDS011;11207;59.512;18.050;2022-10-16T13:35:30;4.93;;;2.77;;
22080;SDS011;11207;59.512;18.050;2022-10-16T13:41:00;4.00;;;2.70;;
22080;SDS011;11207;59.512;18.050;2022-10-16T13:43:27;7.57;;;2.73;;
22080;SDS011;11207;59.512;18.050;2022-10-16T13:46:07;3.63;;;2.60;;
22080;SDS011;11207;59.512;18.050;2022-10-16T13:49:03;4.00;;;2.67;;
22080;SDS011;11207;59.512;18.050;2022-10-16T13:51:31;3.67;;;2.50;;
22080;SDS011;11207;59.512;18.050;2022-10-16T13:53:57;5.00;;;3.17;;
22080;SDS011;11207;59.512;18.050;2022-10-16T13:56:25;3.23;;;2.80;;
22080;SDS011;11207;59.512;18.050;2022-10-16T13:59:03;4.90;;;3.20;;
22080;SDS011;11207;59.512;18.050;2022-10-16T14:01:34;3.23;;;2.30;;
22080;SDS011;11207;59.512;18.050;2022-10-16T14:04:09;7.77;;;2.50;;
22080;SDS011;11207;59.512;18.050;2022-10-16T14:06:40;5.23;;;2.13;;
22080;SDS011;11207;59.512;18.050;2022-10-16T14:09:09;4.53;;;2.20;;
22080;SDS011;11207;59.512;18.050;2022-10-16T14:14:23;1.70;;;1.57;;
22080;SDS011;11207;59.512;18.050;2022-10-16T14:16:52;1.97;;;1.83;;
22080;SDS011;11207;59.512;18.050;2022-10-16T14:21:51;2.30;;;1.70;;
22080;SDS011;11207;59.512;18.050;2022-10-16T14:24:24;1.83;;;1.73;;
22080;SDS011;11207;59.512;18.050;2022-10-16T14:26:57;1.97;;;1.87;;
22080;SDS011;11207;59.512;18.050;2022-10-16T14:29:23;2.17;;;1.93;;
22080;SDS011;11207;59.512;18.050;2022-10-16T14:31:57;2.80;;;1.80;;
22080;SDS011;11207;59.512;18.050;2022-10-16T14:34:37;2.03;;;1.70;;
22080;SDS011;11207;59.512;18.050;2022-10-16T14:37:09;1.70;;;1.60;;
22080;SDS011;11207;59.512;18.050;2022-10-16T14:39:52;2.37;;;1.80;;
22080;SDS011;11207;59.512;18.050;2022-10-16T14:42:20;2.17;;;1.70;;
22080;SDS011;11207;59.512;18.050;2022-10-16T14:44:49;1.63;;;1.53;;
22080;SDS011;11207;59.512;18.050;2022-10-16T14:47:21;1.40;;;1.40;;
22080;SDS011;11207;59.512;18.050;2022-10-16T14:49:49;4.00;;;2.13;;
22080;SDS011;11207;59.512;18.050;2022-10-16T14:52:16;2.60;;;1.93;;
22080;SDS011;11207;59.512;18.050;2022-10-16T14:54:42;2.93;;;1.90;;
22080;SDS011;11207;59.512;18.050;2022-10-16T14:57:15;2.00;;;1.70;;
22080;SDS011;11207;59.512;18.050;2022-10-16T14:59:43;1.97;;;1.70;;
22080;SDS011;11207;59.512;18.050;2022-10-16T15:04:50;2.47;;;2.00;;
22080;SDS011;11207;59.512;18.050;2022-10-16T15:07:16;3.30;;;2.60;;
22080;SDS011;11207;59.512;18.050;2022-10-16T15:09:42;3.87;;;2.50;;
22080;SDS011;11207;59.512;18.050;2022-10-16T15:12:07;5.13;;;4.03;;
22080;SDS011;11207;59.512;18.050;2022-10-16T15:14:33;4.57;;;3.30;;
22080;SDS011;11207;59.512;18.050;2022-10-16T15:16:59;3.80;;;3.20;;
22080;SDS011;11207;59.512;18.050;2022-10-16T15:19:24;8.60;;;4.90;;
22080;SDS011;11207;59.512;18.050;2022-10-16T15:21:50;10.87;;;6.67;;
22080;SDS011;11207;59.512;18.050;2022-10-16T15:24:17;7.27;;;4.43;;
22080;SDS011;11207;59.512;18.050;2022-10-16T15:26:43;4.60;;;2.80;;
22080;SDS011;11207;59.512;18.050;2022-10-16T15:29:11;6.90;;;2.73;;
22080;SDS011;11207;59.512;18.050;2022-10-16T15:31:37;4.33;;;2.97;;
22080;SDS011;11207;59.512;18.050;2022-10-16T15:34:03;7.37;;;2.90;;
22080;SDS011;11207;59.512;18.050;2022-10-16T15:36:34;9.37;;;3.10;;
22080;SDS011;11207;59.512;18.050;2022-10-16T15:41:46;6.83;;;3.50;;
22080;SDS011;11207;59.512;18.050;2022-10-16T15:44:18;2.83;;;2.17;;
22080;SDS011;11207;59.512;18.050;2022-10-16T15:46:45;3.57;;;1.80;;
22080;SDS011;11207;59.512;18.050;2022-10-16T15:49:11;2.20;;;1.80;;
22080;SDS011;11207;59.512;18.050;2022-10-16T15:51:38;3.10;;;1.97;;
22080;SDS011;11207;59.512;18.050;2022-10-16T15:54:04;5.07;;;2.20;;
22080;SDS011;11207;59.512;18.050;2022-10-16T15:56:30;3.43;;;2.40;;
22080;SDS011;11207;59.512;18.050;2022-10-16T15:58:58;9.33;;;4.03;;
22080;SDS011;11207;59.512;18.050;2022-10-16T16:01:27;3.50;;;2.30;;
22080;SDS011;11207;59.512;18.050;2022-10-16T16:03:54;5.13;;;2.50;;
22080;SDS011;11207;59.512;18.050;2022-10-16T16:06:21;6.03;;;2.70;;
22080;SDS011;11207;59.512;18.050;2022-10-16T16:08:48;3.77;;;2.50;;
22080;SDS011;11207;59.512;18.050;2022-10-16T16:11:15;4.63;;;3.23;;
22080;SDS011;11207;59.512;18.050;2022-10-16T16:13:42;6.07;;;3.20;;
22080;SDS011;11207;59.512;18.050;2022-10-16T16:16:09;7.00;;;3.27;;
22080;SDS011;11207;59.512;18.050;2022-10-16T16:18:36;5.73;;;2.97;;
22080;SDS011;11207;59.512;18.050;2022-10-16T16:21:03;5.23;;;3.40;;
22080;SDS011;11207;59.512;18.050;2022-10-16T16:23:29;4.67;;;3.20;;
22080;SDS011;11207;59.512;18.050;2022-10-16T16:26:05;5.43;;;2.30;;
22080;SDS011;11207;59.512;18.050;2022-10-16T16:28:33;5.07;;;2.70;;
22080;SDS011;11207;59.512;18.050;2022-10-16T16:30:59;3.77;;;2.10;;
22080;SDS011;11207;59.512;18.050;2022-10-16T16:33:24;6.50;;;2.73;;
22080;SDS011;11207;59.512;18.050;2022-10-16T16:35:50;5.80;;;3.07;;
22080;SDS011;11207;59.512;18.050;2022-10-16T16:38:20;8.13;;;2.40;;
22080;SDS011;11207;59.512;18.050;2022-10-16T16:40:46;6.20;;;2.60;;
22080;SDS011;11207;59.512;18.050;2022-10-16T16:43:12;3.93;;;2.00;;
22080;SDS011;11207;59.512;18.050;2022-10-16T16:45:37;3.93;;;2.10;;
22080;SDS011;11207;59.512;18.050;2022-10-16T16:48:03;6.07;;;1.97;;
22080;SDS011;11207;59.512;18.050;2022-10-16T16:50:34;3.30;;;2.27;;